sensor_id;sensor_type;location;lat;lon;timestamp;temperature;humidity
5344;DHT22;2694;48.954;8.928;2023-02-28T00:01:25;-1.20;99.90
5344;DHT22;2694;48.954;8.928;2023-02-28T00:03:52;-1.20;99.90
5344;DHT22;2694;48.954;8.928;2023-02-28T00:06:20;-1.20;99.90
5344;DHT22;2694;48.954;8.928;2023-02-28T00:08:47;-1.10;99.90
5344;DHT22;2694;48.954;8.928;2023-02-28T00:11:15;-1.20;99.90
5344;DHT22;2694;48.954;8.928;2023-02-28T00:13:45;-1.10;99.90
5344;DHT22;2694;48.954;8.928;2023-02-28T00:16:14;-1.20;99.90
5344;DHT22;2694;48.954;8.928;2023-02-28T00:18:41;-1.20;99.90
5344;DHT22;2694;48.954;8.928;2023-02-28T00:21:09;-1.20;99.90
5344;DHT22;2694;48.954;8.928;2023-02-28T00:23:36;-1.20;99.90
5344;DHT22;2694;48.954;8.928;2023-02-28T00:26:03;-1.20;99.90
5344;DHT22;2694;48.954;8.928;2023-02-28T00:28:30;-1.30;99.90
5344;DHT22;2694;48.954;8.928;2023-02-28T00:30:58;-1.30;99.90
5344;DHT22;2694;48.954;8.928;2023-02-28T00:33:26;-1.40;99.90
5344;DHT22;2694;48.954;8.928;2023-02-28T00:36:02;-1.40;99.90
5344;DHT22;2694;48.954;8.928;2023-02-28T00:38:30;-1.40;99.90
5344;DHT22;2694;48.954;8.928;2023-02-28T00:40:56;-1.30;99.90
5344;DHT22;2694;48.954;8.928;2023-02-28T00:43:24;-1.40;99.90
5344;DHT22;2694;48.954;8.928;2023-02-28T00:45:51;-1.40;99.90
5344;DHT22;2694;48.954;8.928;2023-02-28T00:48:19;-1.40;99.90
5344;DHT22;2694;48.954;8.928;2023-02-28T00:50:48;-1.40;99.90
5344;DHT22;2694;48.954;8.928;2023-02-28T00:53:15;-1.40;99.90
5344;DHT22;2694;48.954;8.928;2023-02-28T00:55:42;-1.50;99.90
5344;DHT22;2694;48.954;8.928;2023-02-28T00:58:09;-1.50;99.90
5344;DHT22;2694;48.954;8.928;2023-02-28T01:00:36;-1.40;99.90
5344;DHT22;2694;48.954;8.928;2023-02-28T01:03:03;-1.40;99.90
5344;DHT22;2694;48.954;8.928;2023-02-28T01:05:31;-1.40;99.90
5344;DHT22;2694;48.954;8.928;2023-02-28T01:07:58;-1.50;99.90
5344;DHT22;2694;48.954;8.928;2023-02-28T01:10:26;-1.40;99.90
5344;DHT22;2694;48.954;8.928;2023-02-28T01:12:56;-1.40;99.90
5344;DHT22;2694;48.954;8.928;2023-02-28T01:15:23;-1.50;99.90
5344;DHT22;2694;48.954;8.928;2023-02-28T01:17:50;-1.60;99.90
5344;DHT22;2694;48.954;8.928;2023-02-28T01:20:17;-1.50;99.90
5344;DHT22;2694;48.954;8.928;2023-02-28T01:22:46;-1.50;99.90
5344;DHT22;2694;48.954;8.928;2023-02-28T01:25:13;-1.60;99.90
5344;DHT22;2694;48.954;8.928;2023-02-28T01:27:40;-1.70;99.90
5344;DHT22;2694;48.954;8.928;2023-02-28T01:30:08;-1.60;99.90
5344;DHT22;2694;48.954;8.928;2023-02-28T01:32:35;-1.70;99.90
5344;DHT22;2694;48.954;8.928;2023-02-28T01:35:02;-1.70;99.90
5344;DHT22;2694;48.954;8.928;2023-02-28T01:37:29;-1.60;99.90
5344;DHT22;2694;48.954;8.928;2023-02-28T01:39:57;-1.70;99.90
5344;DHT22;2694;48.954;8.928;2023-02-28T01:42:24;-1.60;99.90
5344;DHT22;2694;48.954;8.928;2023-02-28T01:45:06;-1.60;99.90
5344;DHT22;2694;48.954;8.928;2023-02-28T01:47:39;-1.60;99.90
5344;DHT22;2694;48.954;8.928;2023-02-28T01:50:10;-1.50;99.90
5344;DHT22;2694;48.954;8.928;2023-02-28T01:52:39;-1.60;99.90
5344;DHT22;2694;48.954;8.928;2023-02-28T01:55:11;-1.70;99.90
5344;DHT22;2694;48.954;8.928;2023-02-28T01:57:42;-1.60;99.90
5344;DHT22;2694;48.954;8.928;2023-02-28T02:00:12;-1.70;99.90
5344;DHT22;2694;48.954;8.928;2023-02-28T02:02:42;-1.70;99.90
5344;DHT22;2694;48.954;8.928;2023-02-28T02:05:12;-1.70;99.90
5344;DHT22;2694;48.954;8.928;2023-02-28T02:07:43;-1.60;99.90
5344;DHT22;2694;48.954;8.928;2023-02-28T02:10:15;-1.70;99.90
5344;DHT22;2694;48.954;8.928;2023-02-28T02:12:55;-1.70;99.90
5344;DHT22;2694;48.954;8.928;2023-02-28T02:15:30;-1.80;99.90
5344;DHT22;2694;48.954;8.928;2023-02-28T02:18:02;-1.60;99.90
5344;DHT22;2694;48.954;8.928;2023-02-28T02:21:01;-1.80;99.90
5344;DHT22;2694;48.954;8.928;2023-02-28T02:30:08;-1.70;99.90
5344;DHT22;2694;48.954;8.928;2023-02-28T02:33:11;-1.70;99.90
5344;DHT22;2694;48.954;8.928;2023-02-28T02:35:49;-1.70;99.90
5344;DHT22;2694;48.954;8.928;2023-02-28T02:38:23;-1.60;99.90
5344;DHT22;2694;48.954;8.928;2023-02-28T02:40:59;-1.60;99.90
5344;DHT22;2694;48.954;8.928;2023-02-28T02:43:34;-1.60;99.90
5344;DHT22;2694;48.954;8.928;2023-02-28T02:46:06;-1.60;99.90
5344;DHT22;2694;48.954;8.928;2023-02-28T02:48:35;-1.60;99.90
5344;DHT22;2694;48.954;8.928;2023-02-28T02:51:07;-1.60;99.90
5344;DHT22;2694;48.954;8.928;2023-02-28T02:53:41;-1.50;99.90
5344;DHT22;2694;48.954;8.928;2023-02-28T02:56:10;-1.60;99.90
5344;DHT22;2694;48.954;8.928;2023-02-28T02:58:40;-1.60;99.90
5344;DHT22;2694;48.954;8.928;2023-02-28T03:01:12;-1.50;99.90
5344;DHT22;2694;48.954;8.928;2023-02-28T03:03:41;-1.60;99.90
5344;DHT22;2694;48.954;8.928;2023-02-28T03:06:10;-1.60;99.90
5344;DHT22;2694;48.954;8.928;2023-02-28T03:08:38;-1.60;99.90
5344;DHT22;2694;48.954;8.928;2023-02-28T03:11:06;-1.60;99.90
5344;DHT22;2694;48.954;8.928;2023-02-28T03:13:50;-1.60;99.90
5344;DHT22;2694;48.954;8.928;2023-02-28T03:16:34;-1.60;99.90
5344;DHT22;2694;48.954;8.928;2023-02-28T03:19:13;-1.60;99.90
5344;DHT22;2694;48.954;8.928;2023-02-28T03:21:51;-1.60;99.90
5344;DHT22;2694;48.954;8.928;2023-02-28T03:24:27;-1.40;99.90
5344;DHT22;2694;48.954;8.928;2023-02-28T03:27:00;-1.60;99.90
5344;DHT22;2694;48.954;8.928;2023-02-28T03:29:34;-1.50;99.90
5344;DHT22;2694;48.954;8.928;2023-02-28T03:32:05;-1.50;99.90
5344;DHT22;2694;48.954;8.928;2023-02-28T03:34:46;-1.50;99.90
5344;DHT22;2694;48.954;8.928;2023-02-28T03:37:18;-1.60;99.90
5344;DHT22;2694;48.954;8.928;2023-02-28T03:39:49;-1.40;99.90
5344;DHT22;2694;48.954;8.928;2023-02-28T03:42:22;-1.50;99.90
5344;DHT22;2694;48.954;8.928;2023-02-28T03:44:54;-1.40;99.90
5344;DHT22;2694;48.954;8.928;2023-02-28T03:47:25;-1.50;99.90
5344;DHT22;2694;48.954;8.928;2023-02-28T03:49:56;-1.50;99.90
5344;DHT22;2694;48.954;8.928;2023-02-28T03:52:29;-1.50;99.90
5344;DHT22;2694;48.954;8.928;2023-02-28T03:55:02;-1.40;99.90
5344;DHT22;2694;48.954;8.928;2023-02-28T03:57:37;-1.50;99.90
5344;DHT22;2694;48.954;8.928;2023-02-28T04:00:08;-1.50;99.90
5344;DHT22;2694;48.954;8.928;2023-02-28T04:02:36;-1.50;99.90
5344;DHT22;2694;48.954;8.928;2023-02-28T04:05:03;-1.50;99.90
5344;DHT22;2694;48.954;8.928;2023-02-28T04:07:32;-1.60;99.90
5344;DHT22;2694;48.954;8.928;2023-02-28T04:09:59;-1.60;99.90
5344;DHT22;2694;48.954;8.928;2023-02-28T04:12:26;-1.50;99.90
5344;DHT22;2694;48.954;8.928;2023-02-28T04:14:53;-1.60;99.90
5344;DHT22;2694;48.954;8.928;2023-02-28T04:17:20;-1.50;99.90
5344;DHT22;2694;48.954;8.928;2023-02-28T04:19:46;-1.50;99.90
5344;DHT22;2694;48.954;8.928;2023-02-28T04:22:13;-1.60;99.90
5344;DHT22;2694;48.954;8.928;2023-02-28T04:24:44;-1.50;99.90
5344;DHT22;2694;48.954;8.928;2023-02-28T04:27:11;-1.50;99.90
5344;DHT22;2694;48.954;8.928;2023-02-28T04:29:38;-1.40;99.90
5344;DHT22;2694;48.954;8.928;2023-02-28T04:32:05;-1.50;99.90
5344;DHT22;2694;48.954;8.928;2023-02-28T04:34:32;-1.40;99.90
5344;DHT22;2694;48.954;8.928;2023-02-28T04:36:59;-1.40;99.90
5344;DHT22;2694;48.954;8.928;2023-02-28T04:39:26;-1.40;99.90
5344;DHT22;2694;48.954;8.928;2023-02-28T04:41:55;-1.40;99.90
5344;DHT22;2694;48.954;8.928;2023-02-28T04:44:22;-1.40;99.90
5344;DHT22;2694;48.954;8.928;2023-02-28T04:46:49;-1.50;99.90
5344;DHT22;2694;48.954;8.928;2023-02-28T04:49:18;-1.40;99.90
5344;DHT22;2694;48.954;8.928;2023-02-28T04:51:46;-1.40;99.90
5344;DHT22;2694;48.954;8.928;2023-02-28T04:54:12;-1.40;99.90
5344;DHT22;2694;48.954;8.928;2023-02-28T04:56:41;-1.40;99.90
5344;DHT22;2694;48.954;8.928;2023-02-28T04:59:09;-1.40;99.90
5344;DHT22;2694;48.954;8.928;2023-02-28T05:01:36;-1.40;99.90
5344;DHT22;2694;48.954;8.928;2023-02-28T05:04:04;-1.30;99.90
5344;DHT22;2694;48.954;8.928;2023-02-28T05:06:32;-1.30;99.90
5344;DHT22;2694;48.954;8.928;2023-02-28T05:09:00;-1.30;99.90
5344;DHT22;2694;48.954;8.928;2023-02-28T05:11:28;-1.30;99.90
5344;DHT22;2694;48.954;8.928;2023-02-28T05:14:00;-1.30;99.90
5344;DHT22;2694;48.954;8.928;2023-02-28T05:16:28;-1.30;99.90
5344;DHT22;2694;48.954;8.928;2023-02-28T05:18:55;-1.30;99.90
5344;DHT22;2694;48.954;8.928;2023-02-28T05:21:28;-1.30;99.90
5344;DHT22;2694;48.954;8.928;2023-02-28T05:23:56;-1.30;99.90
5344;DHT22;2694;48.954;8.928;2023-02-28T05:26:24;-1.30;99.90
5344;DHT22;2694;48.954;8.928;2023-02-28T05:28:52;-1.30;99.90
5344;DHT22;2694;48.954;8.928;2023-02-28T05:31:19;-1.30;99.90
5344;DHT22;2694;48.954;8.928;2023-02-28T05:33:47;-1.30;99.90
5344;DHT22;2694;48.954;8.928;2023-02-28T05:36:14;-1.30;99.90
5344;DHT22;2694;48.954;8.928;2023-02-28T05:38:41;-1.20;99.90
5344;DHT22;2694;48.954;8.928;2023-02-28T05:41:09;-1.20;99.90
5344;DHT22;2694;48.954;8.928;2023-02-28T05:43:37;-1.20;99.90
5344;DHT22;2694;48.954;8.928;2023-02-28T05:46:05;-1.20;99.90
5344;DHT22;2694;48.954;8.928;2023-02-28T05:48:33;-1.20;99.90
5344;DHT22;2694;48.954;8.928;2023-02-28T05:51:02;-1.20;99.90
5344;DHT22;2694;48.954;8.928;2023-02-28T05:53:29;-1.20;99.90
5344;DHT22;2694;48.954;8.928;2023-02-28T05:55:56;-1.20;99.90
5344;DHT22;2694;48.954;8.928;2023-02-28T05:58:23;-1.00;99.90
5344;DHT22;2694;48.954;8.928;2023-02-28T06:00:54;-1.10;99.90
5344;DHT22;2694;48.954;8.928;2023-02-28T06:03:21;-1.20;99.90
5344;DHT22;2694;48.954;8.928;2023-02-28T06:05:48;-1.20;99.90
5344;DHT22;2694;48.954;8.928;2023-02-28T06:08:17;-1.20;99.90
5344;DHT22;2694;48.954;8.928;2023-02-28T06:10:44;-1.10;99.90
5344;DHT22;2694;48.954;8.928;2023-02-28T06:13:11;-1.10;99.90
5344;DHT22;2694;48.954;8.928;2023-02-28T06:15:38;-1.10;99.90
5344;DHT22;2694;48.954;8.928;2023-02-28T06:18:06;-1.10;99.90
5344;DHT22;2694;48.954;8.928;2023-02-28T06:20:33;-1.20;99.90
5344;DHT22;2694;48.954;8.928;2023-02-28T06:23:01;-1.10;99.90
5344;DHT22;2694;48.954;8.928;2023-02-28T06:25:29;-1.10;99.90
5344;DHT22;2694;48.954;8.928;2023-02-28T06:27:57;-1.20;99.90
5344;DHT22;2694;48.954;8.928;2023-02-28T06:30:23;-1.10;99.90
5344;DHT22;2694;48.954;8.928;2023-02-28T06:32:53;-1.10;99.90
5344;DHT22;2694;48.954;8.928;2023-02-28T06:35:20;-1.10;99.90
5344;DHT22;2694;48.954;8.928;2023-02-28T06:37:47;-1.10;99.90
5344;DHT22;2694;48.954;8.928;2023-02-28T06:40:14;-1.00;99.90
5344;DHT22;2694;48.954;8.928;2023-02-28T06:42:43;-1.10;99.90
5344;DHT22;2694;48.954;8.928;2023-02-28T06:45:10;-1.10;99.90
5344;DHT22;2694;48.954;8.928;2023-02-28T06:47:39;-1.10;99.90
5344;DHT22;2694;48.954;8.928;2023-02-28T06:50:08;-1.10;99.90
5344;DHT22;2694;48.954;8.928;2023-02-28T06:52:35;-1.00;99.90
5344;DHT22;2694;48.954;8.928;2023-02-28T06:55:03;-1.10;99.90
5344;DHT22;2694;48.954;8.928;2023-02-28T06:57:31;-1.00;99.90
5344;DHT22;2694;48.954;8.928;2023-02-28T07:00:02;-1.00;99.90
5344;DHT22;2694;48.954;8.928;2023-02-28T07:02:31;-1.00;99.90
5344;DHT22;2694;48.954;8.928;2023-02-28T07:04:58;-1.00;99.90
5344;DHT22;2694;48.954;8.928;2023-02-28T07:07:25;-1.00;99.90
5344;DHT22;2694;48.954;8.928;2023-02-28T07:09:52;-1.10;99.90
5344;DHT22;2694;48.954;8.928;2023-02-28T07:12:18;-1.00;99.90
5344;DHT22;2694;48.954;8.928;2023-02-28T07:14:45;-1.00;99.90
5344;DHT22;2694;48.954;8.928;2023-02-28T07:17:13;-1.00;99.90
5344;DHT22;2694;48.954;8.928;2023-02-28T07:19:40;-1.00;99.90
5344;DHT22;2694;48.954;8.928;2023-02-28T07:22:07;-0.80;99.90
5344;DHT22;2694;48.954;8.928;2023-02-28T07:24:34;-0.90;99.90
5344;DHT22;2694;48.954;8.928;2023-02-28T07:27:01;-0.90;99.90
5344;DHT22;2694;48.954;8.928;2023-02-28T07:29:28;-0.90;99.90
5344;DHT22;2694;48.954;8.928;2023-02-28T07:31:55;-0.90;99.90
5344;DHT22;2694;48.954;8.928;2023-02-28T07:34:23;-0.90;99.90
5344;DHT22;2694;48.954;8.928;2023-02-28T07:36:53;-0.90;99.90
5344;DHT22;2694;48.954;8.928;2023-02-28T07:39:20;-0.80;99.90
5344;DHT22;2694;48.954;8.928;2023-02-28T07:41:47;-0.80;99.90
5344;DHT22;2694;48.954;8.928;2023-02-28T07:44:14;-0.70;99.90
5344;DHT22;2694;48.954;8.928;2023-02-28T07:46:41;-0.70;99.90
5344;DHT22;2694;48.954;8.928;2023-02-28T07:49:08;-0.70;99.90
5344;DHT22;2694;48.954;8.928;2023-02-28T07:51:36;-0.60;99.90
5344;DHT22;2694;48.954;8.928;2023-02-28T07:54:03;-0.50;99.90
5344;DHT22;2694;48.954;8.928;2023-02-28T07:56:30;-0.50;99.90
5344;DHT22;2694;48.954;8.928;2023-02-28T07:58:57;-0.50;99.90
5344;DHT22;2694;48.954;8.928;2023-02-28T08:01:24;-0.40;99.90
5344;DHT22;2694;48.954;8.928;2023-02-28T08:03:50;-0.40;99.90
5344;DHT22;2694;48.954;8.928;2023-02-28T08:06:20;-0.50;99.90
5344;DHT22;2694;48.954;8.928;2023-02-28T08:08:49;-0.40;99.90
5344;DHT22;2694;48.954;8.928;2023-02-28T08:11:16;-0.40;99.90
5344;DHT22;2694;48.954;8.928;2023-02-28T08:13:44;-0.40;99.90
5344;DHT22;2694;48.954;8.928;2023-02-28T08:16:11;-0.50;99.90
5344;DHT22;2694;48.954;8.928;2023-02-28T08:18:40;-0.50;99.90
5344;DHT22;2694;48.954;8.928;2023-02-28T08:21:08;-0.50;99.90
5344;DHT22;2694;48.954;8.928;2023-02-28T08:23:35;-0.50;99.90
5344;DHT22;2694;48.954;8.928;2023-02-28T08:26:03;-0.40;99.90
5344;DHT22;2694;48.954;8.928;2023-02-28T08:28:31;-0.40;99.90
5344;DHT22;2694;48.954;8.928;2023-02-28T08:30:58;-0.40;99.90
5344;DHT22;2694;48.954;8.928;2023-02-28T08:33:27;-0.30;99.90
5344;DHT22;2694;48.954;8.928;2023-02-28T08:35:54;-0.30;99.90
5344;DHT22;2694;48.954;8.928;2023-02-28T08:38:21;-0.30;99.90
5344;DHT22;2694;48.954;8.928;2023-02-28T08:40:48;-0.20;99.90
5344;DHT22;2694;48.954;8.928;2023-02-28T08:43:16;-0.10;99.90
5344;DHT22;2694;48.954;8.928;2023-02-28T08:45:43;-0.10;99.90
5344;DHT22;2694;48.954;8.928;2023-02-28T08:48:10;-0.20;99.90
5344;DHT22;2694;48.954;8.928;2023-02-28T08:50:37;-0.10;99.90
5344;DHT22;2694;48.954;8.928;2023-02-28T08:53:03;-0.10;99.90
5344;DHT22;2694;48.954;8.928;2023-02-28T08:55:30;0.00;99.90
5344;DHT22;2694;48.954;8.928;2023-02-28T08:57:57;0.00;99.90
5344;DHT22;2694;48.954;8.928;2023-02-28T09:00:26;0.00;99.90
5344;DHT22;2694;48.954;8.928;2023-02-28T09:02:53;0.00;99.90
5344;DHT22;2694;48.954;8.928;2023-02-28T09:05:20;0.10;99.90
5344;DHT22;2694;48.954;8.928;2023-02-28T09:07:47;0.30;99.90
5344;DHT22;2694;48.954;8.928;2023-02-28T09:10:13;0.30;99.90
5344;DHT22;2694;48.954;8.928;2023-02-28T09:12:40;0.30;99.90
5344;DHT22;2694;48.954;8.928;2023-02-28T09:15:08;0.30;99.90
5344;DHT22;2694;48.954;8.928;2023-02-28T09:17:36;0.40;99.90
5344;DHT22;2694;48.954;8.928;2023-02-28T09:20:04;0.50;99.90
5344;DHT22;2694;48.954;8.928;2023-02-28T09:22:31;0.60;99.90
5344;DHT22;2694;48.954;8.928;2023-02-28T09:24:58;0.60;99.90
5344;DHT22;2694;48.954;8.928;2023-02-28T09:27:25;0.60;99.90
5344;DHT22;2694;48.954;8.928;2023-02-28T09:29:52;0.80;99.90
5344;DHT22;2694;48.954;8.928;2023-02-28T09:32:19;0.80;99.90
5344;DHT22;2694;48.954;8.928;2023-02-28T09:34:47;0.90;99.90
5344;DHT22;2694;48.954;8.928;2023-02-28T09:37:14;0.90;99.90
5344;DHT22;2694;48.954;8.928;2023-02-28T09:39:41;0.90;99.90
5344;DHT22;2694;48.954;8.928;2023-02-28T09:42:17;0.90;99.90
5344;DHT22;2694;48.954;8.928;2023-02-28T09:44:48;1.00;99.90
5344;DHT22;2694;48.954;8.928;2023-02-28T09:47:21;1.10;99.90
5344;DHT22;2694;48.954;8.928;2023-02-28T09:49:52;1.10;99.90
5344;DHT22;2694;48.954;8.928;2023-02-28T09:52:21;1.20;99.90
5344;DHT22;2694;48.954;8.928;2023-02-28T09:54:48;1.30;99.90
5344;DHT22;2694;48.954;8.928;2023-02-28T09:57:19;1.40;99.90
5344;DHT22;2694;48.954;8.928;2023-02-28T09:59:58;1.50;99.90
5344;DHT22;2694;48.954;8.928;2023-02-28T10:02:51;1.50;99.90
5344;DHT22;2694;48.954;8.928;2023-02-28T10:05:24;1.40;99.90
5344;DHT22;2694;48.954;8.928;2023-02-28T10:08:02;1.50;99.90
5344;DHT22;2694;48.954;8.928;2023-02-28T10:10:34;1.50;99.90
5344;DHT22;2694;48.954;8.928;2023-02-28T10:13:07;1.60;99.90
5344;DHT22;2694;48.954;8.928;2023-02-28T10:15:38;1.70;99.90
5344;DHT22;2694;48.954;8.928;2023-02-28T10:18:10;1.70;99.90
5344;DHT22;2694;48.954;8.928;2023-02-28T10:20:42;1.70;99.90
5344;DHT22;2694;48.954;8.928;2023-02-28T10:23:14;1.80;99.90
5344;DHT22;2694;48.954;8.928;2023-02-28T10:25:46;1.90;99.90
5344;DHT22;2694;48.954;8.928;2023-02-28T10:28:15;1.80;99.90
5344;DHT22;2694;48.954;8.928;2023-02-28T10:30:45;1.90;99.90
5344;DHT22;2694;48.954;8.928;2023-02-28T10:33:19;1.90;99.90
5344;DHT22;2694;48.954;8.928;2023-02-28T10:35:49;1.90;99.90
5344;DHT22;2694;48.954;8.928;2023-02-28T10:38:18;2.00;99.90
5344;DHT22;2694;48.954;8.928;2023-02-28T10:40:45;1.90;99.90
5344;DHT22;2694;48.954;8.928;2023-02-28T10:43:20;1.90;99.90
5344;DHT22;2694;48.954;8.928;2023-02-28T10:45:59;1.90;99.90
5344;DHT22;2694;48.954;8.928;2023-02-28T10:48:34;2.00;99.90
5344;DHT22;2694;48.954;8.928;2023-02-28T10:51:04;2.20;99.90
5344;DHT22;2694;48.954;8.928;2023-02-28T10:53:35;2.20;99.90
5344;DHT22;2694;48.954;8.928;2023-02-28T10:56:04;2.20;99.90
5344;DHT22;2694;48.954;8.928;2023-02-28T10:58:44;2.40;99.70
5344;DHT22;2694;48.954;8.928;2023-02-28T11:01:15;2.50;99.40
5344;DHT22;2694;48.954;8.928;2023-02-28T11:03:42;2.50;99.80
5344;DHT22;2694;48.954;8.928;2023-02-28T11:06:16;2.80;99.10
5344;DHT22;2694;48.954;8.928;2023-02-28T11:08:48;2.80;99.20
5344;DHT22;2694;48.954;8.928;2023-02-28T11:11:17;2.90;99.10
5344;DHT22;2694;48.954;8.928;2023-02-28T11:13:45;2.90;99.10
5344;DHT22;2694;48.954;8.928;2023-02-28T11:16:14;3.10;99.00
5344;DHT22;2694;48.954;8.928;2023-02-28T11:18:46;3.00;98.80
5344;DHT22;2694;48.954;8.928;2023-02-28T11:21:22;3.10;98.40
5344;DHT22;2694;48.954;8.928;2023-02-28T11:23:52;3.10;98.50
5344;DHT22;2694;48.954;8.928;2023-02-28T11:26:39;3.20;98.30
5344;DHT22;2694;48.954;8.928;2023-02-28T11:29:14;3.50;97.70
5344;DHT22;2694;48.954;8.928;2023-02-28T11:34:46;3.70;97.60
5344;DHT22;2694;48.954;8.928;2023-02-28T11:37:17;3.90;97.30
5344;DHT22;2694;48.954;8.928;2023-02-28T11:39:45;3.80;97.20
5344;DHT22;2694;48.954;8.928;2023-02-28T11:42:35;4.10;97.20
5344;DHT22;2694;48.954;8.928;2023-02-28T11:45:14;4.20;96.30
5344;DHT22;2694;48.954;8.928;2023-02-28T11:47:48;4.10;96.40
5344;DHT22;2694;48.954;8.928;2023-02-28T11:50:27;4.10;96.40
5344;DHT22;2694;48.954;8.928;2023-02-28T11:53:10;4.20;96.30
5344;DHT22;2694;48.954;8.928;2023-02-28T11:55:39;4.20;96.00
5344;DHT22;2694;48.954;8.928;2023-02-28T11:58:28;4.40;95.70
5344;DHT22;2694;48.954;8.928;2023-02-28T12:04:00;4.50;95.40
5344;DHT22;2694;48.954;8.928;2023-02-28T12:06:32;4.60;95.80
5344;DHT22;2694;48.954;8.928;2023-02-28T12:09:11;4.70;94.90
5344;DHT22;2694;48.954;8.928;2023-02-28T12:11:48;4.40;95.20
5344;DHT22;2694;48.954;8.928;2023-02-28T12:14:46;4.00;95.30
5344;DHT22;2694;48.954;8.928;2023-02-28T12:17:26;4.00;95.80
5344;DHT22;2694;48.954;8.928;2023-02-28T12:20:02;4.00;96.00
5344;DHT22;2694;48.954;8.928;2023-02-28T12:22:37;4.00;95.60
5344;DHT22;2694;48.954;8.928;2023-02-28T12:25:24;3.80;95.70
5344;DHT22;2694;48.954;8.928;2023-02-28T12:27:57;3.80;95.70
5344;DHT22;2694;48.954;8.928;2023-02-28T12:30:25;3.70;95.80
5344;DHT22;2694;48.954;8.928;2023-02-28T12:32:56;3.80;96.00
5344;DHT22;2694;48.954;8.928;2023-02-28T12:35:28;3.90;96.00
5344;DHT22;2694;48.954;8.928;2023-02-28T12:38:04;4.00;96.00
5344;DHT22;2694;48.954;8.928;2023-02-28T12:40:43;3.90;95.90
5344;DHT22;2694;48.954;8.928;2023-02-28T12:43:13;3.80;96.10
5344;DHT22;2694;48.954;8.928;2023-02-28T12:45:43;3.80;96.10
5344;DHT22;2694;48.954;8.928;2023-02-28T12:48:17;3.90;96.50
5344;DHT22;2694;48.954;8.928;2023-02-28T12:50:46;4.20;96.20
5344;DHT22;2694;48.954;8.928;2023-02-28T12:53:20;4.30;95.80
5344;DHT22;2694;48.954;8.928;2023-02-28T12:55:57;4.40;95.90
5344;DHT22;2694;48.954;8.928;2023-02-28T12:58:34;4.30;95.90
5344;DHT22;2694;48.954;8.928;2023-02-28T13:01:15;4.30;95.70
5344;DHT22;2694;48.954;8.928;2023-02-28T13:07:05;4.30;95.80
5344;DHT22;2694;48.954;8.928;2023-02-28T13:09:34;4.60;95.90
5344;DHT22;2694;48.954;8.928;2023-02-28T13:12:12;4.70;95.40
5344;DHT22;2694;48.954;8.928;2023-02-28T13:14:40;4.70;95.50
5344;DHT22;2694;48.954;8.928;2023-02-28T13:17:12;4.70;95.10
5344;DHT22;2694;48.954;8.928;2023-02-28T13:19:42;4.70;95.20
5344;DHT22;2694;48.954;8.928;2023-02-28T13:22:20;4.80;95.20
5344;DHT22;2694;48.954;8.928;2023-02-28T13:34:16;4.40;95.20
5344;DHT22;2694;48.954;8.928;2023-02-28T13:36:43;4.60;95.40
5344;DHT22;2694;48.954;8.928;2023-02-28T13:39:46;4.80;95.20
5344;DHT22;2694;48.954;8.928;2023-02-28T13:42:32;5.00;94.90
5344;DHT22;2694;48.954;8.928;2023-02-28T13:45:22;5.00;94.50
5344;DHT22;2694;48.954;8.928;2023-02-28T13:47:58;5.20;94.60
5344;DHT22;2694;48.954;8.928;2023-02-28T13:50:34;5.00;94.70
5344;DHT22;2694;48.954;8.928;2023-02-28T13:56:20;4.70;95.20
5344;DHT22;2694;48.954;8.928;2023-02-28T13:58:53;4.70;95.40
5344;DHT22;2694;48.954;8.928;2023-02-28T14:01:40;4.70;95.20
5344;DHT22;2694;48.954;8.928;2023-02-28T14:07:22;4.90;95.50
5344;DHT22;2694;48.954;8.928;2023-02-28T14:09:56;5.00;95.40
5344;DHT22;2694;48.954;8.928;2023-02-28T14:12:55;5.00;95.20
5344;DHT22;2694;48.954;8.928;2023-02-28T14:15:34;5.10;95.00
5344;DHT22;2694;48.954;8.928;2023-02-28T14:18:05;5.10;95.00
5344;DHT22;2694;48.954;8.928;2023-02-28T14:20:34;5.00;94.90
5344;DHT22;2694;48.954;8.928;2023-02-28T14:23:08;5.00;94.70
5344;DHT22;2694;48.954;8.928;2023-02-28T14:25:40;4.90;94.70
5344;DHT22;2694;48.954;8.928;2023-02-28T14:28:18;4.90;95.00
5344;DHT22;2694;48.954;8.928;2023-02-28T14:31:00;5.00;95.00
5344;DHT22;2694;48.954;8.928;2023-02-28T14:33:40;5.00;94.90
5344;DHT22;2694;48.954;8.928;2023-02-28T14:36:16;5.00;94.90
5344;DHT22;2694;48.954;8.928;2023-02-28T14:38:47;4.80;95.00
5344;DHT22;2694;48.954;8.928;2023-02-28T14:41:20;4.80;95.00
5344;DHT22;2694;48.954;8.928;2023-02-28T14:43:53;4.80;95.20
5344;DHT22;2694;48.954;8.928;2023-02-28T14:46:21;4.80;95.20
5344;DHT22;2694;48.954;8.928;2023-02-28T14:48:49;4.70;95.50
5344;DHT22;2694;48.954;8.928;2023-02-28T14:51:22;4.70;95.60
5344;DHT22;2694;48.954;8.928;2023-02-28T14:53:52;4.80;95.80
5344;DHT22;2694;48.954;8.928;2023-02-28T14:56:22;4.80;95.60
5344;DHT22;2694;48.954;8.928;2023-02-28T14:58:54;4.70;95.70
5344;DHT22;2694;48.954;8.928;2023-02-28T15:01:22;4.90;95.90
5344;DHT22;2694;48.954;8.928;2023-02-28T15:03:58;4.90;95.70
5344;DHT22;2694;48.954;8.928;2023-02-28T15:06:29;4.90;95.30
5344;DHT22;2694;48.954;8.928;2023-02-28T15:09:17;4.90;95.70
5344;DHT22;2694;48.954;8.928;2023-02-28T15:11:48;4.90;95.50
5344;DHT22;2694;48.954;8.928;2023-02-28T15:14:19;4.80;95.60
5344;DHT22;2694;48.954;8.928;2023-02-28T15:16:51;4.90;95.70
5344;DHT22;2694;48.954;8.928;2023-02-28T15:19:21;4.80;95.40
5344;DHT22;2694;48.954;8.928;2023-02-28T15:21:55;4.80;95.60
5344;DHT22;2694;48.954;8.928;2023-02-28T15:24:30;5.00;95.50
5344;DHT22;2694;48.954;8.928;2023-02-28T15:27:00;4.80;95.60
5344;DHT22;2694;48.954;8.928;2023-02-28T15:29:30;4.90;95.70
5344;DHT22;2694;48.954;8.928;2023-02-28T15:32:02;4.80;95.50
5344;DHT22;2694;48.954;8.928;2023-02-28T15:34:35;4.80;95.30
5344;DHT22;2694;48.954;8.928;2023-02-28T15:37:29;4.80;95.50
5344;DHT22;2694;48.954;8.928;2023-02-28T15:40:04;4.80;95.50
5344;DHT22;2694;48.954;8.928;2023-02-28T15:42:31;4.70;95.40
5344;DHT22;2694;48.954;8.928;2023-02-28T15:44:58;4.60;95.70
5344;DHT22;2694;48.954;8.928;2023-02-28T15:47:27;4.60;95.90
5344;DHT22;2694;48.954;8.928;2023-02-28T15:49:57;4.60;95.80
5344;DHT22;2694;48.954;8.928;2023-02-28T15:52:31;4.50;96.10
5344;DHT22;2694;48.954;8.928;2023-02-28T15:55:08;4.60;96.10
5344;DHT22;2694;48.954;8.928;2023-02-28T15:57:35;4.50;96.00
5344;DHT22;2694;48.954;8.928;2023-02-28T16:00:04;4.50;96.20
5344;DHT22;2694;48.954;8.928;2023-02-28T16:02:32;4.50;96.20
5344;DHT22;2694;48.954;8.928;2023-02-28T16:05:12;4.40;96.20
5344;DHT22;2694;48.954;8.928;2023-02-28T16:07:44;4.40;96.20
5344;DHT22;2694;48.954;8.928;2023-02-28T16:10:13;4.40;96.20
5344;DHT22;2694;48.954;8.928;2023-02-28T16:12:41;4.40;96.40
5344;DHT22;2694;48.954;8.928;2023-02-28T16:15:17;4.40;96.70
5344;DHT22;2694;48.954;8.928;2023-02-28T16:17:45;4.30;96.60
5344;DHT22;2694;48.954;8.928;2023-02-28T16:20:13;4.30;96.70
5344;DHT22;2694;48.954;8.928;2023-02-28T16:22:41;4.30;96.60
5344;DHT22;2694;48.954;8.928;2023-02-28T16:25:11;4.20;96.50
5344;DHT22;2694;48.954;8.928;2023-02-28T16:27:39;4.30;96.70
5344;DHT22;2694;48.954;8.928;2023-02-28T16:30:13;4.10;96.70
5344;DHT22;2694;48.954;8.928;2023-02-28T16:32:42;4.10;96.80
5344;DHT22;2694;48.954;8.928;2023-02-28T16:35:10;4.00;96.80
5344;DHT22;2694;48.954;8.928;2023-02-28T16:37:37;4.00;96.80
5344;DHT22;2694;48.954;8.928;2023-02-28T16:40:05;4.00;96.90
5344;DHT22;2694;48.954;8.928;2023-02-28T16:42:34;4.00;96.90
5344;DHT22;2694;48.954;8.928;2023-02-28T16:45:05;3.90;97.00
5344;DHT22;2694;48.954;8.928;2023-02-28T16:47:32;3.80;97.20
5344;DHT22;2694;48.954;8.928;2023-02-28T16:49:59;3.70;97.40
5344;DHT22;2694;48.954;8.928;2023-02-28T16:52:26;3.70;97.50
5344;DHT22;2694;48.954;8.928;2023-02-28T16:54:53;3.60;97.40
5344;DHT22;2694;48.954;8.928;2023-02-28T16:57:21;3.70;97.40
5344;DHT22;2694;48.954;8.928;2023-02-28T16:59:50;3.70;97.50
5344;DHT22;2694;48.954;8.928;2023-02-28T17:02:18;3.60;97.60
5344;DHT22;2694;48.954;8.928;2023-02-28T17:04:45;3.60;97.60